sensor_id;sensor_type;location;lat;lon;timestamp;pressure;altitude;pressure_sealevel;temperature
75822;BMP180;64454;51.984;9.838;2023-08-12T00:02:15;100418.00;;;20.40
75822;BMP180;64454;51.984;9.838;2023-08-12T00:04:42;100415.00;;;20.20
75822;BMP180;64454;51.984;9.838;2023-08-12T00:07:09;100417.00;;;20.00
75822;BMP180;64454;51.984;9.838;2023-08-12T00:09:36;100419.00;;;20.00
75822;BMP180;64454;51.984;9.838;2023-08-12T00:12:03;100418.00;;;20.10
75822;BMP180;64454;51.984;9.838;2023-08-12T00:14:30;100416.00;;;20.20
75822;BMP180;64454;51.984;9.838;2023-08-12T00:16:57;100407.00;;;20.20
75822;BMP180;64454;51.984;9.838;2023-08-12T00:19:26;100413.00;;;20.00
75822;BMP180;64454;51.984;9.838;2023-08-12T00:21:52;100399.00;;;20.10
75822;BMP180;64454;51.984;9.838;2023-08-12T00:24:20;100408.00;;;19.90
75822;BMP180;64454;51.984;9.838;2023-08-12T00:26:47;100410.00;;;20.00
75822;BMP180;64454;51.984;9.838;2023-08-12T00:29:17;100403.00;;;19.90
75822;BMP180;64454;51.984;9.838;2023-08-12T00:31:45;100405.00;;;20.00
75822;BMP180;64454;51.984;9.838;2023-08-12T00:34:12;100399.00;;;19.90
75822;BMP180;64454;51.984;9.838;2023-08-12T00:36:40;100403.00;;;19.90
75822;BMP180;64454;51.984;9.838;2023-08-12T00:39:07;100398.00;;;19.80
75822;BMP180;64454;51.984;9.838;2023-08-12T00:41:34;100402.00;;;19.80
75822;BMP180;64454;51.984;9.838;2023-08-12T00:44:01;100398.00;;;19.90
75822;BMP180;64454;51.984;9.838;2023-08-12T00:46:28;100402.00;;;19.90
75822;BMP180;64454;51.984;9.838;2023-08-12T00:48:56;100391.00;;;19.70
75822;BMP180;64454;51.984;9.838;2023-08-12T00:51:23;100388.00;;;19.70
75822;BMP180;64454;51.984;9.838;2023-08-12T00:53:52;100382.00;;;19.80
75822;BMP180;64454;51.984;9.838;2023-08-12T00:56:20;100377.00;;;19.80
75822;BMP180;64454;51.984;9.838;2023-08-12T00:58:48;100383.00;;;20.00
75822;BMP180;64454;51.984;9.838;2023-08-12T01:01:15;100392.00;;;19.60
75822;BMP180;64454;51.984;9.838;2023-08-12T01:03:43;100379.00;;;19.90
75822;BMP180;64454;51.984;9.838;2023-08-12T01:06:10;100376.00;;;19.60
75822;BMP180;64454;51.984;9.838;2023-08-12T01:08:37;100379.00;;;19.70
75822;BMP180;64454;51.984;9.838;2023-08-12T01:11:14;100369.00;;;19.90
75822;BMP180;64454;51.984;9.838;2023-08-12T01:13:49;100371.00;;;19.60
75822;BMP180;64454;51.984;9.838;2023-08-12T01:16:21;100370.00;;;19.60
75822;BMP180;64454;51.984;9.838;2023-08-12T01:18:50;100372.00;;;19.60
75822;BMP180;64454;51.984;9.838;2023-08-12T01:21:21;100370.00;;;19.50
75822;BMP180;64454;51.984;9.838;2023-08-12T01:23:50;100363.00;;;19.40
75822;BMP180;64454;51.984;9.838;2023-08-12T01:26:17;100360.00;;;19.50
75822;BMP180;64454;51.984;9.838;2023-08-12T01:28:44;100357.00;;;19.60
75822;BMP180;64454;51.984;9.838;2023-08-12T01:31:15;100355.00;;;19.70
75822;BMP180;64454;51.984;9.838;2023-08-12T01:33:55;100347.00;;;19.70
75822;BMP180;64454;51.984;9.838;2023-08-12T01:36:27;100340.00;;;19.70
75822;BMP180;64454;51.984;9.838;2023-08-12T01:38:59;100340.00;;;19.80
75822;BMP180;64454;51.984;9.838;2023-08-12T01:41:27;100334.00;;;19.80
75822;BMP180;64454;51.984;9.838;2023-08-12T01:43:54;100335.00;;;20.10
75822;BMP180;64454;51.984;9.838;2023-08-12T01:46:21;100336.00;;;19.80
75822;BMP180;64454;51.984;9.838;2023-08-12T01:48:48;100338.00;;;19.70
75822;BMP180;64454;51.984;9.838;2023-08-12T01:51:15;100335.00;;;19.60
75822;BMP180;64454;51.984;9.838;2023-08-12T01:53:42;100330.00;;;19.80
75822;BMP180;64454;51.984;9.838;2023-08-12T01:56:11;100333.00;;;20.00
75822;BMP180;64454;51.984;9.838;2023-08-12T01:58:37;100323.00;;;19.90
75822;BMP180;64454;51.984;9.838;2023-08-12T02:01:04;100325.00;;;19.80
75822;BMP180;64454;51.984;9.838;2023-08-12T02:03:31;100321.00;;;19.90
75822;BMP180;64454;51.984;9.838;2023-08-12T02:05:58;100322.00;;;19.80
75822;BMP180;64454;51.984;9.838;2023-08-12T02:08:25;100319.00;;;20.00
75822;BMP180;64454;51.984;9.838;2023-08-12T02:10:52;100314.00;;;20.00
75822;BMP180;64454;51.984;9.838;2023-08-12T02:13:20;100315.00;;;20.10
75822;BMP180;64454;51.984;9.838;2023-08-12T02:15:47;100313.00;;;19.80
75822;BMP180;64454;51.984;9.838;2023-08-12T02:18:14;100307.00;;;20.10
75822;BMP180;64454;51.984;9.838;2023-08-12T02:20:41;100301.00;;;19.90
75822;BMP180;64454;51.984;9.838;2023-08-12T02:23:08;100302.00;;;20.20
75822;BMP180;64454;51.984;9.838;2023-08-12T02:25:35;100295.00;;;20.10
75822;BMP180;64454;51.984;9.838;2023-08-12T02:28:02;100293.00;;;20.20
75822;BMP180;64454;51.984;9.838;2023-08-12T02:30:31;100295.00;;;20.40
75822;BMP180;64454;51.984;9.838;2023-08-12T02:32:58;100287.00;;;20.10
75822;BMP180;64454;51.984;9.838;2023-08-12T02:35:25;100272.00;;;20.00
75822;BMP180;64454;51.984;9.838;2023-08-12T02:37:52;100272.00;;;20.10
75822;BMP180;64454;51.984;9.838;2023-08-12T02:40:19;100286.00;;;19.80
75822;BMP180;64454;51.984;9.838;2023-08-12T02:42:46;100289.00;;;19.80
75822;BMP180;64454;51.984;9.838;2023-08-12T02:45:13;100292.00;;;19.90
75822;BMP180;64454;51.984;9.838;2023-08-12T02:47:41;100283.00;;;20.10
75822;BMP180;64454;51.984;9.838;2023-08-12T02:50:09;100278.00;;;20.40
75822;BMP180;64454;51.984;9.838;2023-08-12T02:52:36;100302.00;;;20.60
75822;BMP180;64454;51.984;9.838;2023-08-12T02:55:03;100322.00;;;20.80
75822;BMP180;64454;51.984;9.838;2023-08-12T02:57:30;100299.00;;;20.70
75822;BMP180;64454;51.984;9.838;2023-08-12T02:59:57;100298.00;;;20.60
75822;BMP180;64454;51.984;9.838;2023-08-12T03:02:24;100311.00;;;20.30
75822;BMP180;64454;51.984;9.838;2023-08-12T03:04:53;100310.00;;;20.40
75822;BMP180;64454;51.984;9.838;2023-08-12T03:07:20;100316.00;;;20.80
75822;BMP180;64454;51.984;9.838;2023-08-12T03:09:47;100312.00;;;20.60
75822;BMP180;64454;51.984;9.838;2023-08-12T03:12:14;100306.00;;;20.80
75822;BMP180;64454;51.984;9.838;2023-08-12T03:14:41;100326.00;;;20.40
75822;BMP180;64454;51.984;9.838;2023-08-12T03:17:08;100321.00;;;20.30
75822;BMP180;64454;51.984;9.838;2023-08-12T03:19:35;100317.00;;;20.30
75822;BMP180;64454;51.984;9.838;2023-08-12T03:22:03;100319.00;;;20.40
75822;BMP180;64454;51.984;9.838;2023-08-12T03:24:30;100324.00;;;20.50
75822;BMP180;64454;51.984;9.838;2023-08-12T03:26:57;100335.00;;;20.40
75822;BMP180;64454;51.984;9.838;2023-08-12T03:29:24;100319.00;;;20.50
75822;BMP180;64454;51.984;9.838;2023-08-12T03:31:51;100311.00;;;20.50
75822;BMP180;64454;51.984;9.838;2023-08-12T03:34:20;100313.00;;;20.00
75822;BMP180;64454;51.984;9.838;2023-08-12T03:36:47;100316.00;;;20.20
75822;BMP180;64454;51.984;9.838;2023-08-12T03:39:18;100317.00;;;20.00
75822;BMP180;64454;51.984;9.838;2023-08-12T03:41:46;100313.00;;;20.20
75822;BMP180;64454;51.984;9.838;2023-08-12T03:44:14;100318.00;;;20.20
75822;BMP180;64454;51.984;9.838;2023-08-12T03:46:44;100313.00;;;19.80
75822;BMP180;64454;51.984;9.838;2023-08-12T03:49:11;100316.00;;;20.10
75822;BMP180;64454;51.984;9.838;2023-08-12T03:51:38;100311.00;;;20.00
75822;BMP180;64454;51.984;9.838;2023-08-12T03:54:05;100315.00;;;19.70
75822;BMP180;64454;51.984;9.838;2023-08-12T03:56:34;100312.00;;;19.70
75822;BMP180;64454;51.984;9.838;2023-08-12T03:59:01;100314.00;;;20.20
75822;BMP180;64454;51.984;9.838;2023-08-12T04:01:28;100314.00;;;20.10
75822;BMP180;64454;51.984;9.838;2023-08-12T04:03:54;100316.00;;;20.10
75822;BMP180;64454;51.984;9.838;2023-08-12T04:06:21;100321.00;;;20.10
75822;BMP180;64454;51.984;9.838;2023-08-12T04:08:48;100320.00;;;20.00
75822;BMP180;64454;51.984;9.838;2023-08-12T04:11:15;100321.00;;;20.10
75822;BMP180;64454;51.984;9.838;2023-08-12T04:13:43;100319.00;;;19.90
75822;BMP180;64454;51.984;9.838;2023-08-12T04:16:10;100322.00;;;20.20
75822;BMP180;64454;51.984;9.838;2023-08-12T04:18:37;100326.00;;;19.90
75822;BMP180;64454;51.984;9.838;2023-08-12T04:21:04;100324.00;;;20.00
75822;BMP180;64454;51.984;9.838;2023-08-12T04:23:31;100324.00;;;20.10
75822;BMP180;64454;51.984;9.838;2023-08-12T04:25:58;100339.00;;;19.80
75822;BMP180;64454;51.984;9.838;2023-08-12T04:28:25;100339.00;;;19.90
75822;BMP180;64454;51.984;9.838;2023-08-12T04:30:53;100341.00;;;19.90
75822;BMP180;64454;51.984;9.838;2023-08-12T04:33:20;100338.00;;;19.80
75822;BMP180;64454;51.984;9.838;2023-08-12T04:35:47;100339.00;;;20.10
75822;BMP180;64454;51.984;9.838;2023-08-12T04:38:14;100346.00;;;20.10
75822;BMP180;64454;51.984;9.838;2023-08-12T04:40:41;100338.00;;;20.10
75822;BMP180;64454;51.984;9.838;2023-08-12T04:43:09;100348.00;;;20.30
75822;BMP180;64454;51.984;9.838;2023-08-12T04:45:37;100342.00;;;19.70
75822;BMP180;64454;51.984;9.838;2023-08-12T04:48:06;100350.00;;;19.60
75822;BMP180;64454;51.984;9.838;2023-08-12T04:50:34;100349.00;;;19.70
75822;BMP180;64454;51.984;9.838;2023-08-12T04:53:01;100346.00;;;19.50
75822;BMP180;64454;51.984;9.838;2023-08-12T04:55:28;100343.00;;;19.60
75822;BMP180;64454;51.984;9.838;2023-08-12T04:57:55;100347.00;;;19.80
75822;BMP180;64454;51.984;9.838;2023-08-12T05:00:23;100341.00;;;19.90
75822;BMP180;64454;51.984;9.838;2023-08-12T05:02:50;100342.00;;;20.00
75822;BMP180;64454;51.984;9.838;2023-08-12T05:05:37;100345.00;;;19.80
75822;BMP180;64454;51.984;9.838;2023-08-12T05:08:24;100342.00;;;19.80
75822;BMP180;64454;51.984;9.838;2023-08-12T05:11:12;100342.00;;;19.90
75822;BMP180;64454;51.984;9.838;2023-08-12T05:13:59;100335.00;;;20.10
75822;BMP180;64454;51.984;9.838;2023-08-12T05:16:26;100331.00;;;20.10
75822;BMP180;64454;51.984;9.838;2023-08-12T05:18:54;100319.00;;;20.20
75822;BMP180;64454;51.984;9.838;2023-08-12T05:21:22;100315.00;;;20.30
75822;BMP180;64454;51.984;9.838;2023-08-12T05:23:49;100303.00;;;20.40
75822;BMP180;64454;51.984;9.838;2023-08-12T05:26:16;100312.00;;;20.10
75822;BMP180;64454;51.984;9.838;2023-08-12T05:28:43;100315.00;;;19.40
75822;BMP180;64454;51.984;9.838;2023-08-12T05:31:10;100321.00;;;19.40
75822;BMP180;64454;51.984;9.838;2023-08-12T05:33:37;100319.00;;;19.70
75822;BMP180;64454;51.984;9.838;2023-08-12T05:36:06;100316.00;;;19.70
75822;BMP180;64454;51.984;9.838;2023-08-12T05:38:36;100314.00;;;20.00
75822;BMP180;64454;51.984;9.838;2023-08-12T05:41:04;100307.00;;;20.00
75822;BMP180;64454;51.984;9.838;2023-08-12T05:43:33;100297.00;;;19.80
75822;BMP180;64454;51.984;9.838;2023-08-12T05:46:00;100298.00;;;20.10
75822;BMP180;64454;51.984;9.838;2023-08-12T05:48:27;100294.00;;;19.90
75822;BMP180;64454;51.984;9.838;2023-08-12T05:50:54;100298.00;;;19.80
75822;BMP180;64454;51.984;9.838;2023-08-12T05:53:22;100301.00;;;19.80
75822;BMP180;64454;51.984;9.838;2023-08-12T05:55:50;100299.00;;;19.70
75822;BMP180;64454;51.984;9.838;2023-08-12T05:58:17;100299.00;;;19.80
75822;BMP180;64454;51.984;9.838;2023-08-12T06:00:44;100298.00;;;19.70
75822;BMP180;64454;51.984;9.838;2023-08-12T06:03:11;100295.00;;;19.60
75822;BMP180;64454;51.984;9.838;2023-08-12T06:05:40;100300.00;;;19.70
75822;BMP180;64454;51.984;9.838;2023-08-12T06:08:07;100295.00;;;20.10
75822;BMP180;64454;51.984;9.838;2023-08-12T06:10:34;100292.00;;;20.20
75822;BMP180;64454;51.984;9.838;2023-08-12T06:13:03;100294.00;;;19.90
75822;BMP180;64454;51.984;9.838;2023-08-12T06:15:31;100293.00;;;20.00
75822;BMP180;64454;51.984;9.838;2023-08-12T06:17:59;100299.00;;;20.10
75822;BMP180;64454;51.984;9.838;2023-08-12T06:20:26;100298.00;;;20.10
75822;BMP180;64454;51.984;9.838;2023-08-12T06:22:53;100291.00;;;20.10
75822;BMP180;64454;51.984;9.838;2023-08-12T06:25:20;100296.00;;;20.30
75822;BMP180;64454;51.984;9.838;2023-08-12T06:27:47;100299.00;;;20.00
75822;BMP180;64454;51.984;9.838;2023-08-12T06:30:15;100296.00;;;20.20
75822;BMP180;64454;51.984;9.838;2023-08-12T06:32:42;100297.00;;;20.50
75822;BMP180;64454;51.984;9.838;2023-08-12T06:35:09;100286.00;;;20.40
75822;BMP180;64454;51.984;9.838;2023-08-12T06:37:36;100288.00;;;20.00
75822;BMP180;64454;51.984;9.838;2023-08-12T06:40:04;100291.00;;;20.20
75822;BMP180;64454;51.984;9.838;2023-08-12T06:42:32;100285.00;;;20.30
75822;BMP180;64454;51.984;9.838;2023-08-12T06:44:59;100290.00;;;20.30
75822;BMP180;64454;51.984;9.838;2023-08-12T06:47:28;100286.00;;;20.30
75822;BMP180;64454;51.984;9.838;2023-08-12T06:49:55;100277.00;;;20.30
75822;BMP180;64454;51.984;9.838;2023-08-12T06:52:22;100277.00;;;20.30
75822;BMP180;64454;51.984;9.838;2023-08-12T06:54:49;100278.00;;;20.30
75822;BMP180;64454;51.984;9.838;2023-08-12T06:57:16;100274.00;;;20.10
75822;BMP180;64454;51.984;9.838;2023-08-12T06:59:43;100274.00;;;20.20
75822;BMP180;64454;51.984;9.838;2023-08-12T07:02:10;100271.00;;;20.10
75822;BMP180;64454;51.984;9.838;2023-08-12T07:04:38;100271.00;;;20.30
75822;BMP180;64454;51.984;9.838;2023-08-12T07:07:05;100264.00;;;20.50
75822;BMP180;64454;51.984;9.838;2023-08-12T07:09:32;100267.00;;;20.50
75822;BMP180;64454;51.984;9.838;2023-08-12T07:11:58;100269.00;;;20.40
75822;BMP180;64454;51.984;9.838;2023-08-12T07:14:26;100269.00;;;20.30
75822;BMP180;64454;51.984;9.838;2023-08-12T07:16:53;100265.00;;;20.50
75822;BMP180;64454;51.984;9.838;2023-08-12T07:19:21;100265.00;;;20.70
75822;BMP180;64454;51.984;9.838;2023-08-12T07:21:50;100273.00;;;20.60
75822;BMP180;64454;51.984;9.838;2023-08-12T07:24:19;100267.00;;;20.50
75822;BMP180;64454;51.984;9.838;2023-08-12T07:26:46;100268.00;;;20.50
75822;BMP180;64454;51.984;9.838;2023-08-12T07:29:14;100266.00;;;20.50
75822;BMP180;64454;51.984;9.838;2023-08-12T07:31:42;100270.00;;;20.70
75822;BMP180;64454;51.984;9.838;2023-08-12T07:34:10;100260.00;;;21.00
75822;BMP180;64454;51.984;9.838;2023-08-12T07:36:38;100259.00;;;20.90
75822;BMP180;64454;51.984;9.838;2023-08-12T07:39:07;100268.00;;;21.10
75822;BMP180;64454;51.984;9.838;2023-08-12T07:41:34;100264.00;;;21.10
75822;BMP180;64454;51.984;9.838;2023-08-12T07:44:01;100262.00;;;20.80
75822;BMP180;64454;51.984;9.838;2023-08-12T07:46:29;100266.00;;;20.80
75822;BMP180;64454;51.984;9.838;2023-08-12T07:48:56;100258.00;;;20.60
75822;BMP180;64454;51.984;9.838;2023-08-12T07:51:23;100258.00;;;20.50
75822;BMP180;64454;51.984;9.838;2023-08-12T07:53:50;100256.00;;;20.60
75822;BMP180;64454;51.984;9.838;2023-08-12T07:56:18;100250.00;;;20.60
75822;BMP180;64454;51.984;9.838;2023-08-12T07:58:45;100254.00;;;20.70
75822;BMP180;64454;51.984;9.838;2023-08-12T08:01:13;100259.00;;;20.70
75822;BMP180;64454;51.984;9.838;2023-08-12T08:03:40;100259.00;;;20.50
75822;BMP180;64454;51.984;9.838;2023-08-12T08:06:07;100253.00;;;20.20
75822;BMP180;64454;51.984;9.838;2023-08-12T08:08:34;100250.00;;;20.40
75822;BMP180;64454;51.984;9.838;2023-08-12T08:11:00;100250.00;;;20.70
75822;BMP180;64454;51.984;9.838;2023-08-12T08:13:29;100239.00;;;20.40
75822;BMP180;64454;51.984;9.838;2023-08-12T08:15:56;100232.00;;;20.50
75822;BMP180;64454;51.984;9.838;2023-08-12T08:18:23;100238.00;;;20.60
75822;BMP180;64454;51.984;9.838;2023-08-12T08:20:49;100235.00;;;20.40
75822;BMP180;64454;51.984;9.838;2023-08-12T08:23:16;100234.00;;;20.50
75822;BMP180;64454;51.984;9.838;2023-08-12T08:25:43;100237.00;;;20.60
75822;BMP180;64454;51.984;9.838;2023-08-12T08:28:10;100229.00;;;20.80
75822;BMP180;64454;51.984;9.838;2023-08-12T08:30:38;100237.00;;;20.90
75822;BMP180;64454;51.984;9.838;2023-08-12T08:33:05;100237.00;;;20.90
75822;BMP180;64454;51.984;9.838;2023-08-12T08:35:32;100243.00;;;20.40
75822;BMP180;64454;51.984;9.838;2023-08-12T08:37:59;100237.00;;;20.50
75822;BMP180;64454;51.984;9.838;2023-08-12T08:40:26;100239.00;;;20.50
75822;BMP180;64454;51.984;9.838;2023-08-12T08:42:54;100247.00;;;20.10
75822;BMP180;64454;51.984;9.838;2023-08-12T08:45:22;100240.00;;;20.20
75822;BMP180;64454;51.984;9.838;2023-08-12T08:47:51;100244.00;;;19.90
75822;BMP180;64454;51.984;9.838;2023-08-12T08:50:19;100234.00;;;19.80
75822;BMP180;64454;51.984;9.838;2023-08-12T08:52:48;100227.00;;;20.00
75822;BMP180;64454;51.984;9.838;2023-08-12T08:55:17;100222.00;;;20.50
75822;BMP180;64454;51.984;9.838;2023-08-12T08:57:45;100209.00;;;20.80
75822;BMP180;64454;51.984;9.838;2023-08-12T09:00:13;100223.00;;;21.10
75822;BMP180;64454;51.984;9.838;2023-08-12T09:02:43;100219.00;;;21.60
75822;BMP180;64454;51.984;9.838;2023-08-12T09:05:13;100195.00;;;22.50
75822;BMP180;64454;51.984;9.838;2023-08-12T09:07:42;100196.00;;;24.00
75822;BMP180;64454;51.984;9.838;2023-08-12T09:10:11;100184.00;;;24.40
75822;BMP180;64454;51.984;9.838;2023-08-12T09:12:38;100200.00;;;24.90
75822;BMP180;64454;51.984;9.838;2023-08-12T09:15:06;100209.00;;;24.40
75822;BMP180;64454;51.984;9.838;2023-08-12T09:17:33;100197.00;;;24.20
75822;BMP180;64454;51.984;9.838;2023-08-12T09:20:00;100198.00;;;24.00
75822;BMP180;64454;51.984;9.838;2023-08-12T09:22:30;100194.00;;;23.90
75822;BMP180;64454;51.984;9.838;2023-08-12T09:24:57;100163.00;;;24.60
75822;BMP180;64454;51.984;9.838;2023-08-12T09:27:24;100157.00;;;25.40
75822;BMP180;64454;51.984;9.838;2023-08-12T09:29:56;100164.00;;;26.00
75822;BMP180;64454;51.984;9.838;2023-08-12T09:32:23;100154.00;;;26.20
75822;BMP180;64454;51.984;9.838;2023-08-12T09:34:52;100148.00;;;25.70
75822;BMP180;64454;51.984;9.838;2023-08-12T09:37:20;100141.00;;;26.70
75822;BMP180;64454;51.984;9.838;2023-08-12T09:39:49;100136.00;;;26.60
75822;BMP180;64454;51.984;9.838;2023-08-12T09:42:17;100128.00;;;27.80
75822;BMP180;64454;51.984;9.838;2023-08-12T09:44:45;100144.00;;;27.60
75822;BMP180;64454;51.984;9.838;2023-08-12T09:47:12;100150.00;;;27.00
75822;BMP180;64454;51.984;9.838;2023-08-12T09:49:40;100158.00;;;25.80
75822;BMP180;64454;51.984;9.838;2023-08-12T09:52:08;100161.00;;;25.30
75822;BMP180;64454;51.984;9.838;2023-08-12T09:54:35;100162.00;;;24.90
75822;BMP180;64454;51.984;9.838;2023-08-12T09:57:08;100174.00;;;25.00
75822;BMP180;64454;51.984;9.838;2023-08-12T09:59:35;100186.00;;;24.40
75822;BMP180;64454;51.984;9.838;2023-08-12T10:02:04;100186.00;;;24.60
75822;BMP180;64454;51.984;9.838;2023-08-12T10:04:38;100195.00;;;24.10
75822;BMP180;64454;51.984;9.838;2023-08-12T10:07:07;100197.00;;;23.90
75822;BMP180;64454;51.984;9.838;2023-08-12T10:09:35;100189.00;;;23.20
75822;BMP180;64454;51.984;9.838;2023-08-12T10:12:07;100183.00;;;23.40
75822;BMP180;64454;51.984;9.838;2023-08-12T10:14:35;100173.00;;;24.00
75822;BMP180;64454;51.984;9.838;2023-08-12T10:17:02;100168.00;;;24.20
75822;BMP180;64454;51.984;9.838;2023-08-12T10:19:30;100164.00;;;24.40
75822;BMP180;64454;51.984;9.838;2023-08-12T10:21:59;100167.00;;;24.90
75822;BMP180;64454;51.984;9.838;2023-08-12T10:24:27;100189.00;;;25.70
75822;BMP180;64454;51.984;9.838;2023-08-12T10:26:54;100185.00;;;25.80
75822;BMP180;64454;51.984;9.838;2023-08-12T10:29:23;100173.00;;;25.90
75822;BMP180;64454;51.984;9.838;2023-08-12T10:31:51;100160.00;;;26.10
75822;BMP180;64454;51.984;9.838;2023-08-12T10:34:21;100153.00;;;27.20
75822;BMP180;64454;51.984;9.838;2023-08-12T10:36:48;100163.00;;;28.30
75822;BMP180;64454;51.984;9.838;2023-08-12T10:39:24;100157.00;;;27.30
75822;BMP180;64454;51.984;9.838;2023-08-12T10:41:55;100159.00;;;27.60
75822;BMP180;64454;51.984;9.838;2023-08-12T10:44:28;100131.00;;;28.00
75822;BMP180;64454;51.984;9.838;2023-08-12T10:47:08;100154.00;;;27.90
75822;BMP180;64454;51.984;9.838;2023-08-12T10:49:38;100136.00;;;27.90
75822;BMP180;64454;51.984;9.838;2023-08-12T10:52:26;100139.00;;;28.00
75822;BMP180;64454;51.984;9.838;2023-08-12T10:54:54;100111.00;;;28.70
75822;BMP180;64454;51.984;9.838;2023-08-12T10:57:35;100100.00;;;27.90
75822;BMP180;64454;51.984;9.838;2023-08-12T11:00:10;100098.00;;;27.70
75822;BMP180;64454;51.984;9.838;2023-08-12T11:02:38;100110.00;;;29.10
75822;BMP180;64454;51.984;9.838;2023-08-12T11:05:09;100142.00;;;28.10
75822;BMP180;64454;51.984;9.838;2023-08-12T11:07:40;100139.00;;;27.10
75822;BMP180;64454;51.984;9.838;2023-08-12T11:10:12;100133.00;;;27.10
75822;BMP180;64454;51.984;9.838;2023-08-12T11:12:48;100131.00;;;26.40
75822;BMP180;64454;51.984;9.838;2023-08-12T11:15:17;100126.00;;;26.60
75822;BMP180;64454;51.984;9.838;2023-08-12T11:17:47;100093.00;;;27.40
75822;BMP180;64454;51.984;9.838;2023-08-12T11:20:14;100118.00;;;27.40
75822;BMP180;64454;51.984;9.838;2023-08-12T11:22:42;100107.00;;;27.50
75822;BMP180;64454;51.984;9.838;2023-08-12T11:25:12;100079.00;;;28.40
75822;BMP180;64454;51.984;9.838;2023-08-12T11:27:40;100086.00;;;28.40
75822;BMP180;64454;51.984;9.838;2023-08-12T11:30:10;100098.00;;;28.40
75822;BMP180;64454;51.984;9.838;2023-08-12T11:32:39;100066.00;;;29.20
75822;BMP180;64454;51.984;9.838;2023-08-12T11:35:09;100060.00;;;29.70
75822;BMP180;64454;51.984;9.838;2023-08-12T11:37:37;100056.00;;;29.90
75822;BMP180;64454;51.984;9.838;2023-08-12T11:40:06;100056.00;;;29.10
75822;BMP180;64454;51.984;9.838;2023-08-12T11:42:35;100067.00;;;28.70
75822;BMP180;64454;51.984;9.838;2023-08-12T11:45:03;100067.00;;;28.10
75822;BMP180;64454;51.984;9.838;2023-08-12T11:47:30;100112.00;;;27.50
75822;BMP180;64454;51.984;9.838;2023-08-12T11:50:01;100117.00;;;27.20
75822;BMP180;64454;51.984;9.838;2023-08-12T11:52:30;100104.00;;;26.50
75822;BMP180;64454;51.984;9.838;2023-08-12T11:54:57;100077.00;;;26.50
75822;BMP180;64454;51.984;9.838;2023-08-12T11:57:26;100098.00;;;26.90
75822;BMP180;64454;51.984;9.838;2023-08-12T11:59:58;100077.00;;;26.80
75822;BMP180;64454;51.984;9.838;2023-08-12T12:02:26;100046.00;;;27.90
75822;BMP180;64454;51.984;9.838;2023-08-12T12:04:53;100058.00;;;29.10
75822;BMP180;64454;51.984;9.838;2023-08-12T12:07:23;100067.00;;;29.40
75822;BMP180;64454;51.984;9.838;2023-08-12T12:09:51;100095.00;;;28.80
75822;BMP180;64454;51.984;9.838;2023-08-12T12:12:22;100087.00;;;27.90
75822;BMP180;64454;51.984;9.838;2023-08-12T12:14:51;100083.00;;;27.10
75822;BMP180;64454;51.984;9.838;2023-08-12T12:17:21;100078.00;;;27.30
75822;BMP180;64454;51.984;9.838;2023-08-12T12:19:53;100087.00;;;27.10
75822;BMP180;64454;51.984;9.838;2023-08-12T12:22:27;100091.00;;;27.40
75822;BMP180;64454;51.984;9.838;2023-08-12T12:24:57;100083.00;;;27.10
75822;BMP180;64454;51.984;9.838;2023-08-12T12:27:25;100031.00;;;27.70
75822;BMP180;64454;51.984;9.838;2023-08-12T12:29:52;100054.00;;;27.90
75822;BMP180;64454;51.984;9.838;2023-08-12T12:32:19;100056.00;;;28.30
75822;BMP180;64454;51.984;9.838;2023-08-12T12:34:47;100049.00;;;28.30
75822;BMP180;64454;51.984;9.838;2023-08-12T12:37:14;100052.00;;;28.50
75822;BMP180;64454;51.984;9.838;2023-08-12T12:39:42;100049.00;;;28.90
75822;BMP180;64454;51.984;9.838;2023-08-12T12:42:10;100036.00;;;29.10
75822;BMP180;64454;51.984;9.838;2023-08-12T12:44:37;100052.00;;;28.90
75822;BMP180;64454;51.984;9.838;2023-08-12T12:47:04;100052.00;;;28.60
75822;BMP180;64454;51.984;9.838;2023-08-12T12:49:32;100049.00;;;27.90
75822;BMP180;64454;51.984;9.838;2023-08-12T12:51:59;100052.00;;;27.90
75822;BMP180;64454;51.984;9.838;2023-08-12T12:54:25;100043.00;;;27.60
75822;BMP180;64454;51.984;9.838;2023-08-12T12:56:54;100050.00;;;27.40
75822;BMP180;64454;51.984;9.838;2023-08-12T12:59:21;100053.00;;;27.10
75822;BMP180;64454;51.984;9.838;2023-08-12T13:01:49;100050.00;;;27.40
75822;BMP180;64454;51.984;9.838;2023-08-12T13:04:18;100053.00;;;27.60
75822;BMP180;64454;51.984;9.838;2023-08-12T13:06:46;100043.00;;;28.00
75822;BMP180;64454;51.984;9.838;2023-08-12T13:09:13;100048.00;;;28.50
75822;BMP180;64454;51.984;9.838;2023-08-12T13:11:41;100052.00;;;28.70
75822;BMP180;64454;51.984;9.838;2023-08-12T13:14:09;100041.00;;;28.30
75822;BMP180;64454;51.984;9.838;2023-08-12T13:16:36;100053.00;;;28.10
75822;BMP180;64454;51.984;9.838;2023-08-12T13:19:05;100053.00;;;28.10
75822;BMP180;64454;51.984;9.838;2023-08-12T13:21:32;100064.00;;;27.80
75822;BMP180;64454;51.984;9.838;2023-08-12T13:23:59;100066.00;;;27.80
75822;BMP180;64454;51.984;9.838;2023-08-12T13:26:27;100076.00;;;27.80
75822;BMP180;64454;51.984;9.838;2023-08-12T13:28:54;100061.00;;;28.00
75822;BMP180;64454;51.984;9.838;2023-08-12T13:31:22;100060.00;;;28.00
75822;BMP180;64454;51.984;9.838;2023-08-12T13:33:50;100064.00;;;27.90
75822;BMP180;64454;51.984;9.838;2023-08-12T13:36:17;100070.00;;;28.20
75822;BMP180;64454;51.984;9.838;2023-08-12T13:38:44;100070.00;;;28.50
75822;BMP180;64454;51.984;9.838;2023-08-12T13:41:11;100066.00;;;28.60
75822;BMP180;64454;51.984;9.838;2023-08-12T13:43:38;100066.00;;;28.60
75822;BMP180;64454;51.984;9.838;2023-08-12T13:46:04;100062.00;;;28.10
75822;BMP180;64454;51.984;9.838;2023-08-12T13:48:33;100056.00;;;28.10
75822;BMP180;64454;51.984;9.838;2023-08-12T13:51:00;100041.00;;;28.10
75822;BMP180;64454;51.984;9.838;2023-08-12T13:53:27;100042.00;;;28.50
75822;BMP180;64454;51.984;9.838;2023-08-12T13:55:54;100040.00;;;27.70
75822;BMP180;64454;51.984;9.838;2023-08-12T13:58:21;100041.00;;;27.60
75822;BMP180;64454;51.984;9.838;2023-08-12T14:00:48;100050.00;;;27.80
75822;BMP180;64454;51.984;9.838;2023-08-12T14:03:15;100062.00;;;27.20